createdAt,value
2022-10-26T00:00:10.039Z,12.00
2022-10-26T00:02:38.828Z,12.00
2022-10-26T00:05:05.732Z,12.00
2022-10-26T00:07:34.678Z,11.90
2022-10-26T00:10:01.234Z,11.80
2022-10-26T00:12:27.762Z,11.70
2022-10-26T00:14:54.329Z,11.70
2022-10-26T00:17:21.062Z,11.70
2022-10-26T00:19:50.027Z,11.70
2022-10-26T00:22:18.925Z,11.60
2022-10-26T00:24:45.462Z,11.50
2022-10-26T00:27:11.982Z,11.40
2022-10-26T00:29:40.969Z,11.40
2022-10-26T00:32:09.764Z,11.50
2022-10-26T00:34:36.548Z,11.60
2022-10-26T00:37:03.115Z,11.60
2022-10-26T00:39:31.784Z,11.60
2022-10-26T00:42:00.491Z,11.50
2022-10-26T00:44:45.834Z,11.50
2022-10-26T00:47:16.090Z,11.50
2022-10-26T00:49:46.581Z,11.50
2022-10-26T00:52:13.777Z,11.60
2022-10-26T00:54:40.796Z,11.60
2022-10-26T00:57:07.585Z,11.60
2022-10-26T00:59:36.514Z,11.60
2022-10-26T01:02:03.179Z,11.50
2022-10-26T01:04:29.689Z,11.60
2022-10-26T01:06:56.279Z,11.50
2022-10-26T01:09:22.946Z,11.60
2022-10-26T01:11:49.446Z,11.60
2022-10-26T01:14:19.683Z,11.60
2022-10-26T01:16:58.076Z,11.60
2022-10-26T01:19:27.618Z,11.60
2022-10-26T01:21:56.846Z,11.60
2022-10-26T01:24:23.348Z,11.60
2022-10-26T01:26:57.307Z,11.60
2022-10-26T01:29:39.220Z,11.60
2022-10-26T01:32:17.725Z,11.60
2022-10-26T01:34:50.112Z,11.60
2022-10-26T01:37:25.050Z,11.60
2022-10-26T01:39:56.955Z,11.60
2022-10-26T01:42:23.868Z,11.60
2022-10-26T01:44:56.300Z,11.60
2022-10-26T01:47:23.474Z,11.60
2022-10-26T01:49:52.709Z,11.60
2022-10-26T01:52:19.686Z,11.60
2022-10-26T01:54:46.194Z,11.60
2022-10-26T01:57:14.526Z,11.60
2022-10-26T01:59:59.390Z,11.50
2022-10-26T02:02:44.717Z,11.60
2022-10-26T02:05:30.117Z,11.60
2022-10-26T02:08:15.122Z,11.60
2022-10-26T02:11:20.388Z,11.50
2022-10-26T02:13:47.085Z,11.50
2022-10-26T02:16:22.631Z,11.40
2022-10-26T02:18:51.545Z,11.40
2022-10-26T02:21:20.174Z,11.40
2022-10-26T02:23:47.610Z,11.40
2022-10-26T02:26:16.287Z,11.30
2022-10-26T02:28:47.265Z,11.20
2022-10-26T02:31:14.211Z,11.20
2022-10-26T02:33:45.237Z,11.20
2022-10-26T02:36:13.843Z,11.20
2022-10-26T02:38:41.768Z,11.30
2022-10-26T02:41:08.602Z,11.20
2022-10-26T02:43:40.643Z,11.30
2022-10-26T02:46:09.081Z,11.30
2022-10-26T02:48:35.803Z,11.40
2022-10-26T02:51:07.064Z,11.40
2022-10-26T02:53:39.447Z,11.40
2022-10-26T02:56:18.081Z,11.40
2022-10-26T02:58:46.535Z,11.40
2022-10-26T03:01:13.501Z,11.50
2022-10-26T03:03:40.168Z,11.50
2022-10-26T03:06:06.806Z,11.50
2022-10-26T03:08:35.482Z,11.50
2022-10-26T03:11:04.686Z,11.50
2022-10-26T03:13:33.625Z,11.50
2022-10-26T03:16:02.335Z,11.50
2022-10-26T03:18:28.868Z,11.50
2022-10-26T03:20:55.401Z,11.50
2022-10-26T03:23:24.158Z,11.60
2022-10-26T03:25:50.685Z,11.60
2022-10-26T03:28:17.210Z,11.60
2022-10-26T03:30:46.178Z,11.60
2022-10-26T03:33:12.705Z,11.60
2022-10-26T03:35:39.264Z,11.60
2022-10-26T03:38:05.894Z,11.60
2022-10-26T03:40:32.500Z,11.60
2022-10-26T03:43:01.623Z,11.60
2022-10-26T03:45:30.410Z,11.60
2022-10-26T03:47:56.932Z,11.50
2022-10-26T03:50:23.464Z,11.50
2022-10-26T03:52:50.800Z,11.50
2022-10-26T03:55:19.723Z,11.50
2022-10-26T03:57:46.368Z,11.60
2022-10-26T04:00:16.439Z,11.60
2022-10-26T04:02:43.557Z,11.60
2022-10-26T04:05:10.129Z,11.50
2022-10-26T04:07:36.669Z,11.50
2022-10-26T04:10:03.892Z,11.50
2022-10-26T04:12:32.804Z,11.50
2022-10-26T04:14:59.408Z,11.50
2022-10-26T04:17:25.971Z,11.40
2022-10-26T04:19:52.569Z,11.40
2022-10-26T04:22:19.150Z,11.50
2022-10-26T04:24:45.694Z,11.50
2022-10-26T04:27:12.256Z,11.50
2022-10-26T04:29:41.178Z,11.50
2022-10-26T04:32:09.926Z,11.50
2022-10-26T04:34:36.466Z,11.50
2022-10-26T04:37:05.235Z,11.50
2022-10-26T04:39:33.938Z,11.50
2022-10-26T04:42:00.476Z,11.50
2022-10-26T04:44:26.991Z,11.50
2022-10-26T04:46:53.545Z,11.50
2022-10-26T04:49:23.214Z,11.50
2022-10-26T04:51:49.749Z,11.50
2022-10-26T04:54:16.272Z,11.50
2022-10-26T04:56:42.859Z,11.50
2022-10-26T04:59:12.022Z,11.50
2022-10-26T05:01:38.676Z,11.40
2022-10-26T05:04:05.294Z,11.40
2022-10-26T05:06:31.888Z,11.40
2022-10-26T05:09:00.578Z,11.40
2022-10-26T05:11:29.614Z,11.40
2022-10-26T05:13:56.169Z,11.40
2022-10-26T05:16:22.696Z,11.40
2022-10-26T05:18:54.527Z,11.50
2022-10-26T05:21:21.060Z,11.40
2022-10-26T05:23:52.394Z,11.50
2022-10-26T05:26:18.984Z,11.50
2022-10-26T05:28:47.903Z,11.50
2022-10-26T05:31:14.563Z,11.50
2022-10-26T05:33:43.656Z,11.50
2022-10-26T05:36:10.181Z,11.50
2022-10-26T05:38:36.728Z,11.50
2022-10-26T05:41:03.325Z,11.50
2022-10-26T05:43:30.282Z,11.50
2022-10-26T05:45:58.974Z,11.50
2022-10-26T08:14:13.585Z,12.60
2022-10-26T08:16:40.577Z,12.60
2022-10-26T08:19:09.765Z,12.70
2022-10-26T08:21:40.580Z,12.80
2022-10-26T08:24:09.573Z,12.90
2022-10-26T08:26:36.303Z,13.00
2022-10-26T08:29:02.837Z,13.00
2022-10-26T08:31:29.678Z,13.10
2022-10-26T08:33:56.200Z,13.10
2022-10-26T08:36:23.852Z,13.20
2022-10-26T08:38:50.448Z,13.30
2022-10-26T08:41:17.527Z,13.40
2022-10-26T08:43:47.782Z,13.40
2022-10-26T08:46:23.440Z,13.50
2022-10-26T08:48:52.730Z,13.70
2022-10-26T08:51:21.934Z,13.90
2022-10-26T08:53:54.240Z,13.90
2022-10-26T08:56:22.104Z,14.00
2022-10-26T08:58:51.429Z,13.90
2022-10-26T09:01:18.719Z,14.00
2022-10-26T09:03:48.066Z,14.10
2022-10-26T09:06:23.780Z,14.10
2022-10-26T09:09:02.574Z,14.10
2022-10-26T09:11:47.988Z,14.00
2022-10-26T09:14:20.456Z,14.00
2022-10-26T09:16:53.015Z,14.10
2022-10-26T09:19:31.155Z,14.20
2022-10-26T09:22:09.793Z,14.30
2022-10-26T09:24:39.818Z,14.40
2022-10-26T09:27:09.247Z,14.60
2022-10-26T09:29:39.677Z,14.70
2022-10-26T09:32:10.615Z,14.70
2022-10-26T09:34:43.981Z,14.80
2022-10-26T09:37:17.928Z,14.90
2022-10-26T09:40:10.086Z,14.90
2022-10-26T09:42:40.549Z,15.00
2022-10-26T09:45:13.367Z,15.10
2022-10-26T09:47:42.377Z,15.10
2022-10-26T09:50:23.527Z,15.20
2022-10-26T09:52:50.327Z,15.20
2022-10-26T09:55:17.137Z,15.30
2022-10-26T09:57:47.693Z,15.40
2022-10-26T10:00:18.499Z,15.50
2022-10-26T10:03:05.360Z,15.50
2022-10-26T10:05:50.148Z,15.50
2022-10-26T10:08:20.371Z,15.50
2022-10-26T10:11:16.407Z,15.60
2022-10-26T10:13:44.118Z,15.70
2022-10-26T10:16:19.952Z,15.90
2022-10-26T10:18:53.119Z,16.10
2022-10-26T10:21:19.663Z,16.10
2022-10-26T10:23:47.922Z,16.10
2022-10-26T10:26:14.452Z,16.10
2022-10-26T10:28:42.366Z,16.10
2022-10-26T10:31:21.790Z,16.20
2022-10-26T10:33:49.353Z,16.20
2022-10-26T10:36:21.044Z,16.20
2022-10-26T10:38:49.344Z,16.20
2022-10-26T10:41:17.581Z,16.20
2022-10-26T10:43:46.306Z,16.20
2022-10-26T10:46:17.843Z,16.20
2022-10-26T10:48:52.445Z,16.20
2022-10-26T10:51:20.295Z,16.30
2022-10-26T10:53:58.552Z,16.20
2022-10-26T10:56:34.014Z,16.20
2022-10-26T10:59:19.413Z,16.30
2022-10-26T11:01:49.692Z,16.30
2022-10-26T11:04:28.670Z,16.40
2022-10-26T11:06:57.524Z,16.40
2022-10-26T11:09:26.635Z,16.40
2022-10-26T11:11:57.387Z,16.50
2022-10-26T11:14:25.937Z,16.50
2022-10-26T11:16:55.388Z,16.50
2022-10-26T11:19:45.116Z,16.50
2022-10-26T11:22:14.835Z,16.50
2022-10-26T11:24:56.414Z,16.50
2022-10-26T11:27:26.100Z,16.50
2022-10-26T11:30:02.265Z,16.50
2022-10-26T11:32:42.417Z,16.60
2022-10-26T11:35:18.446Z,16.60
2022-10-26T11:37:52.134Z,16.70
2022-10-26T11:40:30.996Z,16.90
2022-10-26T11:43:03.908Z,17.10
2022-10-26T11:45:32.286Z,17.20
2022-10-26T11:48:01.894Z,17.30
2022-10-26T11:50:36.504Z,17.40
2022-10-26T11:53:12.262Z,17.50
2022-10-26T11:55:40.271Z,17.60
2022-10-26T11:58:08.728Z,17.60
2022-10-26T12:00:37.002Z,17.70
2022-10-26T12:03:08.350Z,17.80
2022-10-26T12:05:42.431Z,17.80
2022-10-26T12:08:20.755Z,17.80
2022-10-26T12:10:56.054Z,17.90
2022-10-26T12:13:31.518Z,17.90
2022-10-26T12:16:03.864Z,18.00
2022-10-26T12:18:50.327Z,18.00
2022-10-26T12:21:18.021Z,18.10
2022-10-26T12:23:55.026Z,18.10
2022-10-26T12:26:24.541Z,18.10
2022-10-26T12:29:03.219Z,18.10
2022-10-26T12:31:35.160Z,18.10
2022-10-26T12:34:02.169Z,18.10
2022-10-26T12:36:47.619Z,18.10
2022-10-26T12:39:27.822Z,18.10
2022-10-26T12:42:14.624Z,18.00
2022-10-26T12:44:41.347Z,18.10
2022-10-26T12:47:08.792Z,18.10
2022-10-26T12:49:54.649Z,18.10
2022-10-26T12:52:21.983Z,18.00
2022-10-26T12:54:55.171Z,18.10
2022-10-26T12:57:30.714Z,18.10
2022-10-26T13:00:05.055Z,18.10
2022-10-26T13:02:31.615Z,18.10
2022-10-26T13:05:09.169Z,18.10
2022-10-26T13:07:45.623Z,18.10
2022-10-26T13:10:12.113Z,18.10
2022-10-26T13:12:55.116Z,18.10
2022-10-26T13:15:27.043Z,18.10
2022-10-26T13:18:01.661Z,18.10
2022-10-26T13:20:31.670Z,18.20
2022-10-26T13:22:58.504Z,18.30
2022-10-26T13:25:28.911Z,18.40
2022-10-26T13:28:06.386Z,18.50
2022-10-26T13:30:32.892Z,18.50
2022-10-26T13:33:00.241Z,18.50
2022-10-26T13:35:27.284Z,18.50
2022-10-26T13:37:54.955Z,18.60
2022-10-26T13:40:23.497Z,18.60
2022-10-26T13:42:59.873Z,18.60
2022-10-26T13:45:46.756Z,18.70
2022-10-26T13:48:16.987Z,18.70
2022-10-26T13:50:46.267Z,18.80
2022-10-26T13:53:25.159Z,18.80
2022-10-26T13:56:00.680Z,18.80
2022-10-26T13:58:36.637Z,18.80
2022-10-26T14:01:04.913Z,18.80
2022-10-26T14:03:31.583Z,18.90
2022-10-26T14:05:58.166Z,18.80
2022-10-26T14:08:24.755Z,18.80
2022-10-26T14:10:59.247Z,18.90
2022-10-26T14:13:27.374Z,18.90
2022-10-26T14:15:57.957Z,18.90
2022-10-26T14:18:26.000Z,18.90
2022-10-26T14:20:56.481Z,18.80
2022-10-26T14:23:27.168Z,18.90
2022-10-26T14:25:59.033Z,19.00
2022-10-26T14:28:29.729Z,19.00
2022-10-26T14:31:18.060Z,19.00
2022-10-26T14:33:46.934Z,19.00
2022-10-26T14:36:14.331Z,19.00
2022-10-26T14:38:45.812Z,19.00
2022-10-26T14:41:14.046Z,19.00
2022-10-26T14:43:40.674Z,19.00
2022-10-26T14:46:12.910Z,19.00
2022-10-26T14:48:41.844Z,19.00
2022-10-26T14:51:08.409Z,19.00
2022-10-26T14:53:41.775Z,19.00
2022-10-26T14:56:22.135Z,19.00
2022-10-26T14:58:48.745Z,19.00
2022-10-26T15:01:15.367Z,19.00
2022-10-26T15:03:43.211Z,19.00
2022-10-26T15:06:22.456Z,19.00
2022-10-26T15:08:57.052Z,19.00
2022-10-26T15:11:26.632Z,18.90
2022-10-26T15:13:53.727Z,18.90
2022-10-26T15:16:21.632Z,18.90
2022-10-26T15:18:53.076Z,18.90
2022-10-26T15:21:24.410Z,18.90
2022-10-26T15:23:54.074Z,18.80
2022-10-26T15:26:20.763Z,18.80
2022-10-26T15:28:54.815Z,18.80
2022-10-26T15:31:21.320Z,18.80
2022-10-26T15:33:50.614Z,18.80
2022-10-26T15:36:21.209Z,18.80
2022-10-26T15:38:51.611Z,18.80
2022-10-26T15:41:24.248Z,18.80
2022-10-26T15:43:51.483Z,18.70
2022-10-26T15:46:18.075Z,18.70
2022-10-26T15:51:20.727Z,18.70
2022-10-26T15:53:49.666Z,18.60
2022-10-26T15:56:17.359Z,18.60
2022-10-26T15:58:43.902Z,18.60
2022-10-26T16:01:15.388Z,18.60
2022-10-26T16:03:42.664Z,18.60
2022-10-26T16:06:13.760Z,18.50
2022-10-26T16:08:40.328Z,18.50
2022-10-26T16:11:06.862Z,18.50
2022-10-26T16:13:35.561Z,18.40
2022-10-26T16:16:02.438Z,18.40
2022-10-26T16:18:29.025Z,18.40
2022-10-26T16:20:55.565Z,18.40
2022-10-26T16:23:24.588Z,18.30
2022-10-26T16:25:51.129Z,18.30
2022-10-26T16:28:17.648Z,18.30
2022-10-26T16:30:44.253Z,18.30
2022-10-26T16:33:10.895Z,18.20
2022-10-26T16:35:39.878Z,18.20
2022-10-26T16:38:06.444Z,18.10
2022-10-26T16:40:32.974Z,18.10
2022-10-26T16:43:02.174Z,18.10
2022-10-26T16:45:28.702Z,18.10
2022-10-26T16:47:57.990Z,18.10
2022-10-26T16:50:26.907Z,18.00
2022-10-26T16:52:53.422Z,18.00
2022-10-26T16:55:24.457Z,17.90
2022-10-26T16:57:51.200Z,17.80
2022-10-26T17:00:18.070Z,17.80
2022-10-26T17:02:44.629Z,17.80
2022-10-26T17:05:13.619Z,17.70
2022-10-26T17:07:40.150Z,17.70
2022-10-26T17:10:06.792Z,17.70
2022-10-26T17:12:35.836Z,17.60
2022-10-26T17:15:02.535Z,17.60
2022-10-26T17:17:29.258Z,17.50
2022-10-26T17:19:56.259Z,17.40
2022-10-26T17:22:25.034Z,17.40
2022-10-26T17:24:51.552Z,17.40
2022-10-26T17:27:19.066Z,17.30
2022-10-26T17:29:45.592Z,17.30
2022-10-26T17:32:13.822Z,17.20
2022-10-26T17:34:42.717Z,17.10
2022-10-26T17:37:09.284Z,17.10
2022-10-26T17:39:35.809Z,17.10
2022-10-26T17:42:02.383Z,17.00
2022-10-26T17:44:28.888Z,17.00
2022-10-26T17:46:55.418Z,17.00
2022-10-26T17:49:24.918Z,16.90
2022-10-26T17:51:53.465Z,16.90
2022-10-26T17:54:20.106Z,16.80
2022-10-26T17:56:46.826Z,16.80
2022-10-26T17:59:13.393Z,16.70
2022-10-26T18:01:40.045Z,16.70
2022-10-26T18:04:06.661Z,16.70
2022-10-26T18:06:33.207Z,16.60
2022-10-26T18:08:59.745Z,16.50
2022-10-26T18:11:27.503Z,16.50
2022-10-26T18:13:59.392Z,16.40
2022-10-26T18:16:27.010Z,16.40
2022-10-26T18:19:00.283Z,16.30
2022-10-26T18:21:28.272Z,16.20
2022-10-26T18:23:57.183Z,16.10
2022-10-26T18:26:28.414Z,16.10
2022-10-26T18:28:57.720Z,16.00
2022-10-26T18:31:24.984Z,16.00
2022-10-26T18:33:58.874Z,16.00
2022-10-26T18:36:26.006Z,16.00
2022-10-26T18:38:52.856Z,16.00
2022-10-26T18:41:22.809Z,15.90
2022-10-26T18:43:50.633Z,15.80
2022-10-26T18:46:24.334Z,15.80
2022-10-26T18:48:54.129Z,15.70
2022-10-26T18:51:22.114Z,15.70
2022-10-26T18:53:49.042Z,15.70
2022-10-26T18:56:16.994Z,15.60
2022-10-26T18:58:45.027Z,15.60
2022-10-26T19:01:21.088Z,15.60
2022-10-26T19:03:48.233Z,15.50
2022-10-26T19:06:18.220Z,15.50
2022-10-26T19:08:45.301Z,15.50
2022-10-26T19:11:12.839Z,15.50
2022-10-26T19:13:39.693Z,15.50
2022-10-26T19:16:12.712Z,15.40
2022-10-26T19:21:28.605Z,15.30
2022-10-26T19:23:56.825Z,15.30
2022-10-26T19:26:32.041Z,15.20
2022-10-26T19:29:03.194Z,15.20
2022-10-26T19:31:32.300Z,15.20
2022-10-26T19:33:59.641Z,15.20
2022-10-26T19:36:28.871Z,15.10
2022-10-26T19:39:00.477Z,15.10
2022-10-26T19:41:31.163Z,15.10
2022-10-26T19:46:28.921Z,15.00
2022-10-26T19:48:59.361Z,15.00
2022-10-26T19:51:26.568Z,15.00
2022-10-26T19:53:53.100Z,15.00
2022-10-26T19:56:20.534Z,14.90
2022-10-26T19:58:47.798Z,14.90
2022-10-26T20:01:15.375Z,14.80
2022-10-26T20:03:42.277Z,14.80
2022-10-26T20:06:12.758Z,14.80
2022-10-26T20:08:42.971Z,14.80
2022-10-26T20:11:15.500Z,14.70
2022-10-26T20:13:43.181Z,14.70
2022-10-26T20:16:10.022Z,14.70
2022-10-26T20:18:44.281Z,14.60
2022-10-26T20:21:15.596Z,14.50
2022-10-26T20:23:42.712Z,14.40
2022-10-26T20:26:10.966Z,14.40
2022-10-26T20:28:39.288Z,14.40
2022-10-26T20:31:08.235Z,14.40
2022-10-26T20:33:36.898Z,14.40
2022-10-26T20:36:03.527Z,14.40
2022-10-26T20:38:30.342Z,14.40
2022-10-26T20:40:59.439Z,14.30
2022-10-26T20:43:27.094Z,14.30
2022-10-26T20:45:54.213Z,14.30
2022-10-26T20:48:21.147Z,14.30
2022-10-26T20:50:55.699Z,14.30
2022-10-26T20:53:45.359Z,14.20
2022-10-26T20:56:24.801Z,14.20
2022-10-26T20:58:55.873Z,14.10
2022-10-26T21:01:32.741Z,14.10
2022-10-26T21:04:00.701Z,14.00
2022-10-26T21:06:30.293Z,13.90
2022-10-26T21:08:59.488Z,13.90
2022-10-26T21:11:26.043Z,13.90
2022-10-26T21:13:53.596Z,13.90
2022-10-26T21:18:54.317Z,13.80
2022-10-26T21:21:20.828Z,13.80
2022-10-26T21:23:47.363Z,13.80
2022-10-26T21:26:13.923Z,13.80
2022-10-26T21:28:41.694Z,13.80
2022-10-26T21:31:09.892Z,13.70
2022-10-26T21:33:36.512Z,13.80
2022-10-26T21:36:06.420Z,13.70
2022-10-26T21:38:33.500Z,13.70
2022-10-26T21:41:09.678Z,13.70
2022-10-26T21:43:36.891Z,13.60
2022-10-26T21:46:04.006Z,13.60
2022-10-26T21:48:31.467Z,13.60
2022-10-26T21:51:00.739Z,13.60
2022-10-26T21:53:29.755Z,13.50
2022-10-26T21:56:00.405Z,13.50
2022-10-26T21:58:27.428Z,13.50
2022-10-26T22:01:06.391Z,13.50
2022-10-26T22:03:33.100Z,13.40
2022-10-26T22:05:59.672Z,13.30
2022-10-26T22:08:26.280Z,13.30
2022-10-26T22:10:52.793Z,13.30
2022-10-26T22:13:21.709Z,13.30
2022-10-26T22:15:48.221Z,13.30
2022-10-26T22:18:14.976Z,13.30
2022-10-26T22:20:41.505Z,13.30
2022-10-26T22:23:08.883Z,13.30
2022-10-26T22:25:35.436Z,13.30
2022-10-26T22:28:01.949Z,13.20
2022-10-26T22:30:33.399Z,13.20
2022-10-26T22:33:02.067Z,13.20
2022-10-26T22:35:29.778Z,13.20
2022-10-26T22:37:56.625Z,13.10
2022-10-26T22:40:23.143Z,13.10
2022-10-26T22:42:52.695Z,13.10
2022-10-26T22:45:19.555Z,13.10
2022-10-26T22:47:46.057Z,13.10
2022-10-26T22:50:12.601Z,13.00
2022-10-26T22:52:39.106Z,13.00
2022-10-26T22:55:05.811Z,13.00
2022-10-26T22:57:32.345Z,12.90
2022-10-26T22:59:58.873Z,12.90
2022-10-26T23:02:25.464Z,12.90
2022-10-26T23:04:52.083Z,12.90
2022-10-26T23:07:18.598Z,12.90
2022-10-26T23:09:45.101Z,12.90
2022-10-26T23:12:11.599Z,12.90
2022-10-26T23:14:38.125Z,12.90
2022-10-26T23:17:06.073Z,12.80
2022-10-26T23:19:32.565Z,12.80
2022-10-26T23:21:59.137Z,12.80
2022-10-26T23:24:25.640Z,12.70
2022-10-26T23:26:52.294Z,12.70
2022-10-26T23:29:18.809Z,12.70
2022-10-26T23:31:45.305Z,12.70
2022-10-26T23:34:14.099Z,12.70
2022-10-26T23:36:40.776Z,12.70
2022-10-26T23:39:07.286Z,12.70
2022-10-26T23:41:34.638Z,12.60
2022-10-26T23:44:03.586Z,12.60
2022-10-26T23:46:30.301Z,12.60
2022-10-26T23:48:56.807Z,12.50
2022-10-26T23:51:25.848Z,12.50
2022-10-26T23:53:52.374Z,12.50
2022-10-26T23:56:18.913Z,12.50
2022-10-26T23:58:49.049Z,12.40
